createdAt,value
2019-01-04T00:01:32.501Z,101472.00
2019-01-04T00:03:37.507Z,101463.00
2019-01-04T00:05:42.538Z,101464.00
2019-01-04T00:07:47.562Z,101469.00
2019-01-04T00:09:52.539Z,101459.00
2019-01-04T00:11:57.653Z,101460.00
2019-01-04T00:14:02.941Z,101452.00
2019-01-04T00:16:07.852Z,101451.00
2019-01-04T00:18:13.275Z,101445.00
2019-01-04T00:20:18.151Z,101455.00
2019-01-04T00:22:23.124Z,101465.00
2019-01-04T00:24:28.406Z,101462.00
2019-01-04T00:26:33.764Z,101464.00
2019-01-04T00:28:38.811Z,101469.00
2019-01-04T00:30:44.108Z,101474.00
2019-01-04T00:32:49.158Z,101480.00
2019-01-04T00:34:54.774Z,101474.00
2019-01-04T00:36:59.889Z,101467.00
2019-01-04T00:39:05.961Z,101460.00
2019-01-04T00:41:10.988Z,101459.00
2019-01-04T00:43:17.109Z,101457.00
2019-01-04T00:45:22.209Z,101449.00
2019-01-04T00:47:27.346Z,101447.00
2019-01-04T00:49:32.475Z,101432.00
2019-01-04T00:51:37.646Z,101441.00
2019-01-04T00:53:42.765Z,101451.00
2019-01-04T00:56:43.135Z,101445.00
2019-01-04T00:59:45.551Z,101458.00
2019-01-04T01:02:56.515Z,101460.00
2019-01-04T01:06:03.385Z,101460.00
2019-01-04T01:09:09.761Z,101456.00
2019-01-04T01:12:35.280Z,101452.00
2019-01-04T01:15:48.098Z,101458.00
2019-01-04T01:18:45.537Z,101454.00
2019-01-04T01:21:48.997Z,101460.00
2019-01-04T01:25:02.333Z,101470.00
2019-01-04T01:28:13.510Z,101467.00
2019-01-04T01:31:04.549Z,101455.00
2019-01-04T01:33:56.244Z,101449.00
2019-01-04T01:37:13.949Z,101465.00
2019-01-04T01:40:04.057Z,101465.00
2019-01-04T01:43:04.216Z,101467.00
2019-01-04T01:45:59.386Z,101485.00
2019-01-04T01:48:36.114Z,101497.00
2019-01-04T01:51:34.298Z,101490.00
2019-01-04T01:53:47.197Z,101482.00
2019-01-04T01:56:11.769Z,101472.00
2019-01-04T01:58:16.855Z,101481.00
2019-01-04T02:00:23.011Z,101481.00
2019-01-04T02:02:31.015Z,101486.00
2019-01-04T02:04:36.650Z,101491.00
2019-01-04T02:06:44.394Z,101489.00
2019-01-04T02:08:49.371Z,101484.00
2019-01-04T02:10:54.515Z,101474.00
2019-01-04T02:12:59.468Z,101480.00
2019-01-04T02:15:04.930Z,101486.00
2019-01-04T02:17:09.846Z,101482.00
2019-01-04T02:19:14.822Z,101480.00
2019-01-04T02:21:19.783Z,101481.00
2019-01-04T02:23:24.753Z,101483.00
2019-01-04T02:25:30.355Z,101481.00
2019-01-04T02:27:35.382Z,101492.00
2019-01-04T02:29:40.280Z,101480.00
2019-01-04T02:31:45.271Z,101485.00
2019-01-04T02:33:50.152Z,101487.00
2019-01-04T02:35:55.518Z,101485.00
2019-01-04T02:38:00.605Z,101480.00
2019-01-04T02:40:05.662Z,101493.00
2019-01-04T02:42:10.915Z,101479.00
2019-01-04T02:44:15.886Z,101480.00
2019-01-04T02:46:21.101Z,101483.00
2019-01-04T02:48:26.025Z,101486.00
2019-01-04T02:50:31.555Z,101482.00
2019-01-04T02:52:36.738Z,101480.00
2019-01-04T02:54:41.648Z,101466.00
2019-01-04T02:56:46.646Z,101477.00
2019-01-04T02:58:51.540Z,101476.00
2019-01-04T03:00:56.745Z,101469.00
2019-01-04T03:03:03.931Z,101478.00
2019-01-04T03:05:09.092Z,101467.00
2019-01-04T03:07:14.334Z,101474.00
2019-01-04T03:09:19.225Z,101466.00
2019-01-04T03:11:24.165Z,101483.00
2019-01-04T03:13:29.290Z,101481.00
2019-01-04T03:15:34.179Z,101468.00
2019-01-04T03:17:39.173Z,101470.00
2019-01-04T03:19:44.347Z,101484.00
2019-01-04T03:21:49.348Z,101486.00
2019-01-04T03:23:54.367Z,101479.00
2019-01-04T03:25:59.323Z,101483.00
2019-01-04T03:28:04.372Z,101474.00
2019-01-04T03:30:09.476Z,101478.00
2019-01-04T03:32:14.387Z,101477.00
2019-01-04T03:34:19.247Z,101482.00
2019-01-04T03:36:24.457Z,101462.00
2019-01-04T03:38:29.362Z,101466.00
2019-01-04T03:40:34.256Z,101464.00
2019-01-04T03:42:39.236Z,101467.00
2019-01-04T03:44:44.288Z,101454.00
2019-01-04T03:46:49.244Z,101455.00
2019-01-04T03:48:54.250Z,101448.00
2019-01-04T03:51:00.084Z,101452.00
2019-01-04T03:53:05.047Z,101457.00
2019-01-04T03:55:10.101Z,101448.00
2019-01-04T03:57:15.126Z,101442.00
2019-01-04T03:59:20.010Z,101442.00
2019-01-04T04:01:24.959Z,101443.00
2019-01-04T04:03:29.878Z,101426.00
2019-01-04T04:05:34.940Z,101428.00
2019-01-04T04:07:40.352Z,101429.00
2019-01-04T04:09:45.588Z,101432.00
2019-01-04T04:11:50.848Z,101428.00
2019-01-04T04:13:55.888Z,101426.00
2019-01-04T04:16:00.783Z,101433.00
2019-01-04T04:18:06.065Z,101422.00
2019-01-04T04:20:11.123Z,101432.00
2019-01-04T04:22:16.021Z,101440.00
2019-01-04T04:24:20.999Z,101436.00
2019-01-04T04:26:25.900Z,101446.00
2019-01-04T04:28:30.796Z,101444.00
2019-01-04T04:30:35.774Z,101443.00
2019-01-04T04:32:40.687Z,101447.00
2019-01-04T04:34:47.099Z,101451.00
2019-01-04T04:36:52.119Z,101456.00
2019-01-04T04:38:57.003Z,101449.00
2019-01-04T04:41:01.909Z,101450.00
2019-01-04T04:43:06.818Z,101439.00
2019-01-04T04:45:11.744Z,101435.00
2019-01-04T04:47:16.606Z,101438.00
2019-01-04T04:49:21.509Z,101436.00
2019-01-04T04:51:26.579Z,101440.00
2019-01-04T04:53:31.475Z,101442.00
2019-01-04T04:55:36.469Z,101440.00
2019-01-04T04:57:41.355Z,101429.00
2019-01-04T04:59:46.260Z,101437.00
2019-01-04T05:01:51.646Z,101429.00
2019-01-04T05:03:56.627Z,101416.00
2019-01-04T05:06:01.527Z,101422.00
2019-01-04T05:08:06.619Z,101421.00
2019-01-04T05:10:11.484Z,101411.00
2019-01-04T05:12:16.407Z,101422.00
2019-01-04T05:14:21.576Z,101428.00
2019-01-04T05:16:26.469Z,101428.00
2019-01-04T05:18:31.474Z,101424.00
2019-01-04T05:20:36.369Z,101430.00
2019-01-04T05:22:41.333Z,101431.00
2019-01-04T05:24:46.228Z,101429.00
2019-01-04T05:26:51.432Z,101431.00
2019-01-04T05:28:56.425Z,101428.00
2019-01-04T05:31:01.342Z,101418.00
2019-01-04T05:33:06.308Z,101416.00
2019-01-04T05:35:11.654Z,101414.00
2019-01-04T05:37:16.918Z,101418.00
2019-01-04T05:39:21.898Z,101426.00
2019-01-04T05:41:26.795Z,101419.00
2019-01-04T05:43:31.759Z,101418.00
2019-01-04T05:45:36.737Z,101420.00
2019-01-04T05:47:41.742Z,101422.00
2019-01-04T05:49:46.697Z,101420.00
2019-01-04T05:51:51.586Z,101408.00
2019-01-04T05:53:56.507Z,101418.00
2019-01-04T05:56:01.408Z,101423.00
2019-01-04T05:58:06.424Z,101422.00
2019-01-04T06:00:11.980Z,101416.00
2019-01-04T06:02:16.863Z,101416.00
2019-01-04T06:04:21.754Z,101410.00
2019-01-04T06:06:26.753Z,101404.00
2019-01-04T06:08:31.657Z,101399.00
2019-01-04T06:10:36.706Z,101396.00
2019-01-04T06:12:41.731Z,101394.00
2019-01-04T06:14:46.681Z,101385.00
2019-01-04T06:16:51.701Z,101386.00
2019-01-04T06:18:56.680Z,101394.00
2019-01-04T06:21:01.607Z,101392.00
2019-01-04T06:23:06.510Z,101387.00
2019-01-04T06:25:11.556Z,101399.00
2019-01-04T06:27:16.599Z,101408.00
2019-01-04T06:29:21.853Z,101405.00
2019-01-04T06:31:26.821Z,101408.00
2019-01-04T06:33:31.786Z,101397.00
2019-01-04T06:35:36.662Z,101395.00
2019-01-04T06:37:41.595Z,101388.00
2019-01-04T06:39:46.563Z,101397.00
2019-01-04T06:41:51.701Z,101385.00
2019-01-04T06:43:56.601Z,101390.00
2019-01-04T06:46:01.591Z,101393.00
2019-01-04T06:48:06.589Z,101391.00
2019-01-04T06:50:11.946Z,101388.00
2019-01-04T06:52:17.264Z,101393.00
2019-01-04T06:55:35.920Z,101394.00
2019-01-04T06:57:40.934Z,101408.00
2019-01-04T06:59:45.858Z,101400.00
2019-01-04T07:01:50.794Z,101406.00
2019-01-04T07:03:55.662Z,101396.00
2019-01-04T07:06:00.563Z,101398.00
2019-01-04T07:08:05.591Z,101408.00
2019-01-04T07:10:11.280Z,101392.00
2019-01-04T07:12:16.164Z,101398.00
2019-01-04T07:14:21.077Z,101397.00
2019-01-04T07:16:25.964Z,101400.00
2019-01-04T07:18:31.169Z,101402.00
2019-01-04T07:20:36.078Z,101394.00
2019-01-04T07:22:40.963Z,101403.00
2019-01-04T07:24:45.986Z,101397.00
2019-01-04T07:26:50.943Z,101398.00
2019-01-04T07:28:55.872Z,101391.00
2019-01-04T07:31:01.403Z,101391.00
2019-01-04T07:33:06.643Z,101396.00
2019-01-04T07:35:11.698Z,101386.00
2019-01-04T07:37:16.671Z,101409.00
2019-01-04T07:39:21.686Z,101406.00
2019-01-04T07:41:26.650Z,101398.00
2019-01-04T07:43:31.896Z,101408.00
2019-01-04T07:45:36.920Z,101413.00
2019-01-04T07:47:41.963Z,101415.00
2019-01-04T07:49:46.963Z,101419.00
2019-01-04T07:51:51.844Z,101423.00
2019-01-04T07:53:57.143Z,101426.00
2019-01-04T07:56:02.427Z,101418.00
2019-01-04T07:58:07.490Z,101420.00
2019-01-04T08:00:15.193Z,101406.00
2019-01-04T08:02:40.529Z,101402.00
2019-01-04T08:04:45.646Z,101388.00
2019-01-04T08:06:50.551Z,101397.00
2019-01-04T08:08:55.540Z,101392.00
2019-01-04T08:11:00.441Z,101402.00
2019-01-04T08:13:05.523Z,101395.00
2019-01-04T08:15:10.805Z,101404.00
2019-01-04T08:17:16.033Z,101411.00
2019-01-04T08:19:20.935Z,101412.00
2019-01-04T08:21:25.899Z,101409.00
2019-01-04T08:23:30.909Z,101413.00
2019-01-04T08:25:36.062Z,101410.00
2019-01-04T08:27:41.126Z,101408.00
2019-01-04T08:29:46.155Z,101399.00
2019-01-04T08:31:51.390Z,101406.00
2019-01-04T08:33:56.373Z,101405.00
2019-01-04T08:36:01.424Z,101409.00
2019-01-04T08:38:06.646Z,101400.00
2019-01-04T08:40:12.996Z,101410.00
2019-01-04T08:42:17.887Z,101414.00
2019-01-04T08:44:22.799Z,101411.00
2019-01-04T08:46:27.749Z,101403.00
2019-01-04T08:48:32.811Z,101400.00
2019-01-04T08:50:37.769Z,101398.00
2019-01-04T08:52:42.836Z,101392.00
2019-01-04T08:54:47.822Z,101393.00
2019-01-04T08:56:52.722Z,101400.00
2019-01-04T08:58:58.078Z,101396.00
2019-01-04T09:01:02.984Z,101401.00
2019-01-04T09:03:07.891Z,101399.00
2019-01-04T09:05:12.976Z,101396.00
2019-01-04T09:07:18.179Z,101394.00
2019-01-04T09:09:23.078Z,101381.00
2019-01-04T09:11:27.957Z,101381.00
2019-01-04T09:13:32.848Z,101388.00
2019-01-04T09:15:37.758Z,101384.00
2019-01-04T09:17:42.721Z,101387.00
2019-01-04T09:19:47.714Z,101384.00
2019-01-04T09:21:53.017Z,101375.00
2019-01-04T09:23:57.904Z,101383.00
2019-01-04T09:26:03.212Z,101370.00
2019-01-04T09:28:08.233Z,101382.00
2019-01-04T09:30:16.777Z,101376.00
2019-01-04T09:32:21.735Z,101375.00
2019-01-04T09:34:26.685Z,101373.00
2019-01-04T09:36:31.691Z,101366.00
2019-01-04T09:38:36.653Z,101362.00
2019-01-04T09:40:41.734Z,101360.00
2019-01-04T09:42:48.753Z,101349.00
2019-01-04T09:44:53.637Z,101339.00
2019-01-04T09:46:58.962Z,101349.00
2019-01-04T09:49:03.987Z,101351.00
2019-01-04T09:51:09.056Z,101343.00
2019-01-04T09:53:14.061Z,101341.00
2019-01-04T09:55:18.947Z,101344.00
2019-01-04T09:57:24.066Z,101331.00
2019-01-04T09:59:29.179Z,101338.00
2019-01-04T10:01:34.222Z,101325.00
2019-01-04T10:03:39.420Z,101323.00
2019-01-04T10:05:44.721Z,101320.00
2019-01-04T10:07:50.082Z,101322.00
2019-01-04T10:09:54.987Z,101338.00
2019-01-04T10:11:59.976Z,101319.00
2019-01-04T10:14:05.101Z,101325.00
2019-01-04T10:16:10.008Z,101324.00
2019-01-04T10:18:14.901Z,101320.00
2019-01-04T10:20:19.797Z,101315.00
2019-01-04T10:22:24.977Z,101324.00
2019-01-04T10:24:30.182Z,101314.00
2019-01-04T10:26:35.082Z,101307.00
2019-01-04T10:28:40.135Z,101290.00
2019-01-04T10:30:45.023Z,101297.00
2019-01-04T10:32:49.999Z,101288.00
2019-01-04T10:34:54.974Z,101278.00
2019-01-04T10:36:59.884Z,101262.00
2019-01-04T10:39:08.013Z,101262.00
2019-01-04T10:41:12.965Z,101268.00
2019-01-04T10:43:17.954Z,101266.00
2019-01-04T10:45:23.064Z,101277.00
2019-01-04T10:47:28.019Z,101266.00
2019-01-04T10:49:33.000Z,101270.00
2019-01-04T10:51:37.909Z,101270.00
2019-01-04T10:53:42.792Z,101267.00
2019-01-04T10:55:47.927Z,101263.00
2019-01-04T10:57:52.925Z,101270.00
2019-01-04T10:59:57.820Z,101262.00
2019-01-04T11:02:03.070Z,101268.00
2019-01-04T11:04:08.753Z,101258.00
2019-01-04T11:06:13.704Z,101245.00
2019-01-04T11:08:18.965Z,101249.00
2019-01-04T11:10:24.373Z,101249.00
2019-01-04T11:12:29.267Z,101236.00
2019-01-04T11:14:34.455Z,101242.00
2019-01-04T11:16:39.355Z,101241.00
2019-01-04T11:18:44.725Z,101249.00
2019-01-04T11:20:50.125Z,101247.00
2019-01-04T11:23:03.508Z,101246.00
2019-01-04T11:25:54.014Z,101243.00
2019-01-04T11:28:20.554Z,101229.00
2019-01-04T11:31:20.302Z,101230.00
2019-01-04T11:33:49.114Z,101223.00
2019-01-04T11:36:35.570Z,101228.00
2019-01-04T11:39:22.821Z,101220.00
2019-01-04T11:42:39.676Z,101219.00
2019-01-04T11:45:34.416Z,101224.00
2019-01-04T11:48:07.109Z,101224.00
2019-01-04T11:50:51.215Z,101210.00
2019-01-04T11:53:04.615Z,101211.00
2019-01-04T11:55:09.502Z,101206.00
2019-01-04T11:57:14.458Z,101210.00
2019-01-04T11:59:19.638Z,101215.00
2019-01-04T12:01:24.605Z,101206.00
2019-01-04T12:03:29.551Z,101206.00
2019-01-04T12:05:34.483Z,101199.00
2019-01-04T12:07:39.423Z,101199.00
2019-01-04T12:09:44.384Z,101189.00
2019-01-04T12:11:49.631Z,101194.00
2019-01-04T12:13:54.662Z,101191.00
2019-01-04T12:15:59.622Z,101188.00
2019-01-04T12:18:04.595Z,101197.00
2019-01-04T12:20:09.983Z,101199.00
2019-01-04T12:22:14.936Z,101202.00
2019-01-04T12:24:19.927Z,101188.00
2019-01-04T12:26:24.806Z,101203.00
2019-01-04T12:28:30.220Z,101197.00
2019-01-04T12:30:35.558Z,101189.00
2019-01-04T12:32:40.534Z,101196.00
2019-01-04T12:34:45.760Z,101188.00
2019-01-04T12:36:50.733Z,101181.00
2019-01-04T12:38:55.719Z,101170.00
2019-01-04T12:41:00.876Z,101168.00
2019-01-04T12:43:06.219Z,101172.00
2019-01-04T12:45:11.414Z,101173.00
2019-01-04T12:47:16.369Z,101166.00
2019-01-04T12:49:21.425Z,101164.00
2019-01-04T12:51:26.392Z,101161.00
2019-01-04T12:53:31.368Z,101148.00
2019-01-04T12:55:36.359Z,101144.00
2019-01-04T12:57:41.530Z,101142.00
2019-01-04T12:59:46.432Z,101148.00
2019-01-04T13:01:51.312Z,101142.00
2019-01-04T13:03:56.600Z,101154.00
2019-01-04T13:06:01.590Z,101161.00
2019-01-04T13:08:06.685Z,101150.00
2019-01-04T13:10:11.776Z,101161.00
2019-01-04T13:12:16.805Z,101154.00
2019-01-04T13:14:21.733Z,101162.00
2019-01-04T13:16:26.611Z,101153.00
2019-01-04T13:18:31.577Z,101138.00
2019-01-04T13:20:36.983Z,101138.00
2019-01-04T13:22:41.949Z,101131.00
2019-01-04T13:24:47.212Z,101137.00
2019-01-04T13:26:52.318Z,101138.00
2019-01-04T13:28:57.281Z,101136.00
2019-01-04T13:31:02.262Z,101115.00
2019-01-04T13:33:08.085Z,101124.00
2019-01-04T13:35:13.312Z,101110.00
2019-01-04T13:37:18.188Z,101106.00
2019-01-04T13:39:23.617Z,101093.00
2019-01-04T13:41:28.497Z,101093.00
2019-01-04T13:43:33.464Z,101100.00
2019-01-04T13:45:38.607Z,101100.00
2019-01-04T13:47:43.536Z,101093.00
2019-01-04T13:49:48.647Z,101093.00
2019-01-04T13:51:53.632Z,101099.00
2019-01-04T13:53:58.633Z,101100.00
2019-01-04T13:56:03.691Z,101126.00
2019-01-04T13:58:08.664Z,101112.00
2019-01-04T14:00:13.724Z,101124.00
2019-01-04T14:02:18.688Z,101127.00
2019-01-04T14:04:23.583Z,101126.00
2019-01-04T14:06:28.824Z,101123.00
2019-01-04T14:08:34.272Z,101127.00
2019-01-04T14:10:39.320Z,101118.00
2019-01-04T14:12:44.555Z,101116.00
2019-01-04T14:14:49.853Z,101108.00
2019-01-04T14:16:55.095Z,101118.00
2019-01-04T14:19:00.356Z,101107.00
2019-01-04T14:21:05.507Z,101105.00
2019-01-04T14:23:10.969Z,101100.00
2019-01-04T14:25:16.249Z,101091.00
2019-01-04T14:27:21.697Z,101092.00
2019-01-04T14:29:26.599Z,101079.00
2019-01-04T14:31:31.573Z,101078.00
2019-01-04T14:33:36.651Z,101076.00
2019-01-04T14:35:41.699Z,101078.00
2019-01-04T14:37:46.729Z,101064.00
2019-01-04T14:39:51.604Z,101066.00
2019-01-04T14:41:56.582Z,101072.00
2019-01-04T14:44:01.461Z,101061.00
2019-01-04T14:46:06.508Z,101046.00
2019-01-04T14:48:11.987Z,101049.00
2019-01-04T14:50:17.011Z,101065.00
2019-01-04T14:52:22.286Z,101062.00
2019-01-04T14:54:27.631Z,101072.00
2019-01-04T14:56:32.911Z,101073.00
2019-01-04T14:58:37.912Z,101072.00
2019-01-04T15:00:43.218Z,101064.00
2019-01-04T15:02:48.183Z,101077.00
2019-01-04T15:04:53.424Z,101080.00
2019-01-04T15:06:58.770Z,101090.00
2019-01-04T15:09:05.236Z,101094.00
2019-01-04T15:11:10.214Z,101095.00
2019-01-04T15:13:15.322Z,101099.00
2019-01-04T15:15:20.389Z,101119.00
2019-01-04T15:17:25.425Z,101106.00
2019-01-04T15:19:30.412Z,101095.00
2019-01-04T15:21:35.419Z,101094.00
2019-01-04T15:23:40.457Z,101095.00
2019-01-04T15:25:45.509Z,101103.00
2019-01-04T15:27:50.468Z,101103.00
2019-01-04T15:29:55.671Z,101096.00
2019-01-04T15:32:00.646Z,101068.00
2019-01-04T15:34:05.765Z,101057.00
2019-01-04T15:36:10.770Z,101067.00
2019-01-04T15:38:17.623Z,101052.00
2019-01-04T15:40:22.575Z,101050.00
2019-01-04T15:42:27.579Z,101050.00
2019-01-04T15:44:32.470Z,101051.00
2019-01-04T15:46:37.552Z,101059.00
2019-01-04T15:48:42.538Z,101057.00
2019-01-04T15:50:47.423Z,101056.00
2019-01-04T15:52:52.399Z,101059.00
2019-01-04T15:54:57.330Z,101069.00
2019-01-04T15:57:02.501Z,101068.00
2019-01-04T15:59:07.550Z,101075.00
2019-01-04T16:01:12.532Z,101061.00
2019-01-04T16:03:17.961Z,101053.00
2019-01-04T16:05:22.941Z,101049.00
2019-01-04T16:07:27.870Z,101042.00
2019-01-04T16:09:32.852Z,101049.00
2019-01-04T16:11:37.974Z,101049.00
2019-01-04T16:13:42.926Z,101051.00
2019-01-04T16:15:47.879Z,101054.00
2019-01-04T16:17:52.972Z,101041.00
2019-01-04T16:19:57.847Z,101035.00
2019-01-04T16:22:02.906Z,101034.00
2019-01-04T16:24:07.893Z,101037.00
2019-01-04T16:26:12.991Z,101046.00
2019-01-04T16:28:17.975Z,101040.00
2019-01-04T16:30:23.009Z,101036.00
2019-01-04T16:32:27.910Z,101040.00
2019-01-04T16:34:32.990Z,101033.00
2019-01-04T16:36:37.942Z,101025.00
2019-01-04T16:38:43.128Z,101029.00
2019-01-04T16:40:48.269Z,101036.00
2019-01-04T16:42:53.290Z,101039.00
2019-01-04T16:44:58.319Z,101033.00
2019-01-04T16:47:03.383Z,101032.00
2019-01-04T16:49:08.539Z,101010.00
2019-01-04T16:51:13.518Z,101016.00
2019-01-04T16:53:18.402Z,101019.00
2019-01-04T16:55:23.425Z,101010.00
2019-01-04T16:57:28.838Z,101006.00
2019-01-04T16:59:33.766Z,101008.00
2019-01-04T17:01:38.799Z,101006.00
2019-01-04T17:03:43.891Z,101003.00
2019-01-04T17:05:48.994Z,100996.00
2019-01-04T17:07:53.912Z,100989.00
2019-01-04T17:09:58.837Z,100988.00
2019-01-04T17:12:04.118Z,100996.00
2019-01-04T17:14:09.167Z,101006.00
2019-01-04T17:16:14.182Z,100997.00
2019-01-04T17:18:19.258Z,100996.00
2019-01-04T17:20:24.327Z,101000.00
2019-01-04T17:22:29.453Z,100990.00
2019-01-04T17:24:34.363Z,100980.00
2019-01-04T17:26:39.390Z,100990.00
2019-01-04T17:28:44.527Z,100983.00
2019-01-04T17:30:49.442Z,100988.00
2019-01-04T17:32:54.538Z,100995.00
2019-01-04T17:34:59.499Z,100986.00
2019-01-04T17:37:04.725Z,100979.00
2019-01-04T17:39:11.795Z,100989.00
2019-01-04T17:41:16.828Z,100993.00
2019-01-04T17:43:21.967Z,100991.00
2019-01-04T17:45:26.933Z,100989.00
2019-01-04T17:47:31.946Z,100994.00
2019-01-04T17:49:37.252Z,100984.00
2019-01-04T17:51:42.244Z,100991.00
2019-01-04T17:53:47.244Z,101006.00
2019-01-04T17:55:52.365Z,100994.00
2019-01-04T17:57:57.363Z,100990.00
2019-01-04T18:00:02.443Z,101003.00
2019-01-04T18:02:07.674Z,100994.00
2019-01-04T18:04:12.721Z,100992.00
2019-01-04T18:06:17.695Z,100983.00
2019-01-04T18:08:22.773Z,100990.00
2019-01-04T18:10:27.811Z,100996.00
2019-01-04T18:12:32.847Z,100993.00
2019-01-04T18:14:37.883Z,100993.00
2019-01-04T18:16:42.883Z,101001.00
2019-01-04T18:18:47.819Z,101007.00
2019-01-04T18:20:52.796Z,100995.00
2019-01-04T18:22:57.906Z,100995.00
2019-01-04T18:25:02.893Z,100991.00
2019-01-04T18:27:08.096Z,101003.00
2019-01-04T18:29:13.021Z,100987.00
2019-01-04T18:31:48.469Z,100990.00
2019-01-04T18:33:53.455Z,100996.00
2019-01-04T18:35:58.436Z,101007.00
2019-01-04T18:42:25.750Z,101016.00
2019-01-04T18:44:30.767Z,101025.00
2019-01-04T18:46:36.530Z,101018.00
2019-01-04T18:48:41.470Z,101014.00
2019-01-04T18:50:47.074Z,101019.00
2019-01-04T18:52:52.071Z,101013.00
2019-01-04T18:54:57.142Z,101016.00
2019-01-04T18:57:02.154Z,101016.00
2019-01-04T18:59:07.197Z,101013.00
2019-01-04T19:01:13.760Z,101012.00
2019-01-04T19:03:18.917Z,101014.00
2019-01-04T19:05:23.996Z,101010.00
2019-01-04T19:07:29.396Z,101013.00
2019-01-04T19:09:34.379Z,101009.00
2019-01-04T19:11:39.475Z,101015.00
2019-01-04T19:13:44.546Z,101005.00
2019-01-04T19:15:49.433Z,100997.00
2019-01-04T19:17:54.346Z,101006.00
2019-01-04T19:19:59.457Z,101008.00
2019-01-04T19:22:04.498Z,101001.00
2019-01-04T19:24:09.400Z,101007.00
2019-01-04T19:26:14.639Z,101002.00
2019-01-04T19:28:19.553Z,101006.00
2019-01-04T19:30:24.590Z,101013.00
2019-01-04T19:32:29.614Z,101003.00
2019-01-04T19:34:34.644Z,101010.00
2019-01-04T19:36:39.899Z,101005.00
2019-01-04T19:38:44.877Z,100998.00
2019-01-04T19:40:49.945Z,100999.00
2019-01-04T19:42:54.849Z,100992.00
2019-01-04T19:44:59.898Z,100994.00
2019-01-04T19:47:05.323Z,100995.00
2019-01-04T19:49:10.303Z,100995.00
2019-01-04T19:51:15.579Z,100986.00
2019-01-04T19:53:20.564Z,100998.00
2019-01-04T19:55:25.811Z,100993.00
2019-01-04T19:57:30.941Z,100988.00
2019-01-04T19:59:36.191Z,100995.00
2019-01-04T20:01:41.142Z,101006.00
2019-01-04T20:03:46.145Z,100995.00
2019-01-04T20:07:11.349Z,100999.00
2019-01-04T20:10:09.254Z,100988.00
2019-01-04T20:13:50.877Z,101006.00
2019-01-04T20:16:57.198Z,101006.00
2019-01-04T20:19:28.069Z,100992.00
2019-01-04T20:22:05.135Z,100996.00
2019-01-04T20:24:24.915Z,100998.00
2019-01-04T20:26:54.678Z,100991.00
2019-01-04T20:29:36.960Z,100995.00
2019-01-04T20:32:06.858Z,100991.00
2019-01-04T20:34:33.637Z,100995.00
2019-01-04T20:37:09.624Z,100991.00
2019-01-04T20:39:33.656Z,100991.00
2019-01-04T20:42:05.259Z,100987.00
2019-01-04T20:44:38.892Z,100986.00
2019-01-04T20:47:18.355Z,100992.00
2019-01-04T20:49:35.431Z,100993.00
2019-01-04T20:51:52.876Z,100993.00
2019-01-04T20:54:15.703Z,100991.00
2019-01-04T20:56:38.465Z,100983.00
2019-01-04T20:59:14.839Z,100987.00
2019-01-04T21:01:48.077Z,100987.00
2019-01-04T21:04:14.742Z,100986.00
2019-01-04T21:06:32.555Z,100984.00
2019-01-04T21:09:02.818Z,100981.00
2019-01-04T21:11:38.951Z,100977.00
2019-01-04T21:14:14.883Z,100977.00
2019-01-04T21:16:37.443Z,100978.00
2019-01-04T21:19:00.369Z,100973.00
2019-01-04T21:21:19.282Z,100973.00
2019-01-04T21:23:42.108Z,100963.00
2019-01-04T21:26:05.995Z,100965.00
2019-01-04T21:28:28.749Z,100970.00
2019-01-04T21:30:44.439Z,100965.00
2019-01-04T21:33:10.715Z,100962.00
2019-01-04T21:35:38.514Z,100964.00
2019-01-04T21:37:58.581Z,100962.00
2019-01-04T21:40:17.818Z,100950.00
2019-01-04T21:42:36.463Z,100941.00
2019-01-04T21:45:03.428Z,100945.00
2019-01-04T21:47:26.252Z,100944.00
2019-01-04T21:49:48.943Z,100947.00
2019-01-04T21:52:25.122Z,100959.00
2019-01-04T21:54:41.795Z,100949.00
2019-01-04T21:57:08.692Z,100944.00
2019-01-04T21:59:32.383Z,100953.00
2019-01-04T22:02:01.437Z,100949.00
2019-01-04T22:04:24.160Z,100948.00
2019-01-04T22:06:57.223Z,100941.00
2019-01-04T22:09:20.618Z,100937.00
2019-01-04T22:11:52.919Z,100940.00
2019-01-04T22:14:25.961Z,100931.00
2019-01-04T22:16:49.862Z,100941.00
2019-01-04T22:19:19.772Z,100925.00
2019-01-04T22:21:42.627Z,100917.00
2019-01-04T22:24:21.940Z,100930.00
2019-01-04T22:26:44.206Z,100926.00
2019-01-04T22:29:06.761Z,100927.00
2019-01-04T22:31:31.837Z,100924.00
2019-01-04T22:33:54.703Z,100933.00
2019-01-04T22:36:17.580Z,100929.00
2019-01-04T22:38:36.131Z,100923.00
2019-01-04T22:40:59.048Z,100931.00
2019-01-04T22:43:27.042Z,100924.00
2019-01-04T22:45:50.107Z,100912.00
2019-01-04T22:48:32.435Z,100921.00
2019-01-04T22:50:59.841Z,100925.00
2019-01-04T22:53:22.702Z,100928.00
2019-01-04T22:55:45.617Z,100927.00
2019-01-04T22:58:09.515Z,100917.00
2019-01-04T23:00:45.692Z,100916.00
2019-01-04T23:03:18.376Z,100914.00
2019-01-04T23:05:41.251Z,100909.00
2019-01-04T23:08:04.239Z,100898.00
2019-01-04T23:10:27.158Z,100895.00
2019-01-04T23:12:51.411Z,100902.00
2019-01-04T23:15:19.820Z,100890.00
2019-01-04T23:17:45.707Z,100895.00
2019-01-04T23:20:06.047Z,100903.00
2019-01-04T23:23:01.902Z,100896.00
2019-01-04T23:25:23.760Z,100887.00
2019-01-04T23:27:46.361Z,100879.00
2019-01-04T23:30:13.285Z,100877.00
2019-01-04T23:32:34.091Z,100887.00
2019-01-04T23:34:56.627Z,100890.00
2019-01-04T23:37:19.679Z,100892.00
2019-01-04T23:39:43.766Z,100886.00
2019-01-04T23:42:22.827Z,100871.00
2019-01-04T23:44:42.605Z,100878.00
2019-01-04T23:47:05.691Z,100872.00
2019-01-04T23:49:29.578Z,100865.00
2019-01-04T23:52:00.015Z,100863.00
2019-01-04T23:54:15.265Z,100848.00
2019-01-04T23:56:39.245Z,100856.00
2019-01-04T23:59:00.559Z,100853.00
